sensor_id;sensor_type;location;lat;lon;timestamp;pressure;altitude;pressure_sealevel;temperature;humidity
69713;BME280;56980;51.826;4.424;2022-08-23T00:01:44;101524.06;;;22.86;52.25
69713;BME280;56980;51.826;4.424;2022-08-23T00:04:25;101525.06;;;22.89;52.42
69713;BME280;56980;51.826;4.424;2022-08-23T00:06:52;101510.28;;;22.75;52.73
69713;BME280;56980;51.826;4.424;2022-08-23T00:09:20;101529.84;;;22.88;52.98
69713;BME280;56980;51.826;4.424;2022-08-23T00:12:01;101536.88;;;22.78;53.14
69713;BME280;56980;51.826;4.424;2022-08-23T00:14:30;101535.63;;;22.79;53.41
69713;BME280;56980;51.826;4.424;2022-08-23T00:16:56;101534.09;;;22.84;53.40
69713;BME280;56980;51.826;4.424;2022-08-23T00:19:23;101530.34;;;22.70;53.63
69713;BME280;56980;51.826;4.424;2022-08-23T00:21:51;101519.06;;;22.57;54.03
69713;BME280;56980;51.826;4.424;2022-08-23T00:24:17;101511.03;;;22.59;53.95
69713;BME280;56980;51.826;4.424;2022-08-23T00:27:03;101522.34;;;22.61;54.17
69713;BME280;56980;51.826;4.424;2022-08-23T00:29:45;101520.31;;;22.67;53.64
69713;BME280;56980;51.826;4.424;2022-08-23T00:32:22;101518.31;;;22.62;53.78
69713;BME280;56980;51.826;4.424;2022-08-23T00:34:48;101510.75;;;22.57;53.88
69713;BME280;56980;51.826;4.424;2022-08-23T00:37:14;101537.13;;;22.64;54.18
69713;BME280;56980;51.826;4.424;2022-08-23T00:39:40;101513.78;;;22.59;53.97
69713;BME280;56980;51.826;4.424;2022-08-23T00:42:36;101528.59;;;22.67;54.12
69713;BME280;56980;51.826;4.424;2022-08-23T00:45:30;101519.56;;;22.67;53.85
69713;BME280;56980;51.826;4.424;2022-08-23T00:48:15;101498.97;;;22.57;54.03
69713;BME280;56980;51.826;4.424;2022-08-23T00:53:23;101511.75;;;22.65;54.34
69713;BME280;56980;51.826;4.424;2022-08-23T00:55:51;101523.06;;;22.67;54.37
69713;BME280;56980;51.826;4.424;2022-08-23T00:58:20;101517.28;;;22.65;53.91
69713;BME280;56980;51.826;4.424;2022-08-23T01:00:47;101512.28;;;22.58;54.25
69713;BME280;56980;51.826;4.424;2022-08-23T01:03:14;101512.28;;;22.58;53.60
69713;BME280;56980;51.826;4.424;2022-08-23T01:06:18;101514.53;;;22.60;53.88
69713;BME280;56980;51.826;4.424;2022-08-23T01:08:59;101516.06;;;22.55;54.16
69713;BME280;56980;51.826;4.424;2022-08-23T01:12:23;101503.00;;;22.50;54.44
69713;BME280;56980;51.826;4.424;2022-08-23T01:14:32;101513.03;;;22.53;54.27
69713;BME280;56980;51.826;4.424;2022-08-23T01:17:17;101517.31;;;22.60;54.83
69713;BME280;56980;51.826;4.424;2022-08-23T01:19:51;101517.81;;;22.58;54.77
69713;BME280;56980;51.826;4.424;2022-08-23T01:22:31;101509.03;;;22.54;54.47
69713;BME280;56980;51.826;4.424;2022-08-23T01:24:59;101508.78;;;22.52;54.88
69713;BME280;56980;51.826;4.424;2022-08-23T01:27:26;101508.78;;;22.52;54.97
69713;BME280;56980;51.826;4.424;2022-08-23T01:29:52;101515.53;;;22.51;54.99
69713;BME280;56980;51.826;4.424;2022-08-23T01:32:18;101513.03;;;22.59;55.04
69713;BME280;56980;51.826;4.424;2022-08-23T01:34:43;101513.53;;;22.57;55.05
69713;BME280;56980;51.826;4.424;2022-08-23T01:37:09;101512.03;;;22.56;55.18
69713;BME280;56980;51.826;4.424;2022-08-23T01:39:35;101497.72;;;22.46;55.34
69713;BME280;56980;51.826;4.424;2022-08-23T01:42:00;101505.75;;;22.50;55.28
69713;BME280;56980;51.826;4.424;2022-08-23T01:44:26;101510.28;;;22.53;55.36
69713;BME280;56980;51.826;4.424;2022-08-23T01:46:51;101513.53;;;22.51;55.13
69713;BME280;56980;51.826;4.424;2022-08-23T01:49:17;101500.72;;;22.43;55.33
69713;BME280;56980;51.826;4.424;2022-08-23T01:51:43;101496.97;;;22.46;55.69
69713;BME280;56980;51.826;4.424;2022-08-23T01:54:08;101492.72;;;22.45;55.78
69713;BME280;56980;51.826;4.424;2022-08-23T01:56:34;101489.94;;;22.45;55.57
69713;BME280;56980;51.826;4.424;2022-08-23T01:59:01;101498.75;;;22.49;55.28
69713;BME280;56980;51.826;4.424;2022-08-23T02:01:26;101499.47;;;22.49;55.42
69713;BME280;56980;51.826;4.424;2022-08-23T02:03:51;101497.25;;;22.48;55.59
69713;BME280;56980;51.826;4.424;2022-08-23T02:06:17;101492.72;;;22.45;55.57
69713;BME280;56980;51.826;4.424;2022-08-23T02:08:42;101496.00;;;22.27;56.44
69713;BME280;56980;51.826;4.424;2022-08-23T02:11:36;101475.66;;;22.30;55.59
69713;BME280;56980;51.826;4.424;2022-08-23T02:14:08;101494.97;;;22.41;55.84
69713;BME280;56980;51.826;4.424;2022-08-23T02:16:39;101482.44;;;22.34;55.72
69713;BME280;56980;51.826;4.424;2022-08-23T02:19:07;101493.72;;;22.42;55.60
69713;BME280;56980;51.826;4.424;2022-08-23T02:21:34;101488.94;;;22.37;55.91
69713;BME280;56980;51.826;4.424;2022-08-23T02:24:10;101494.72;;;22.39;55.51
69713;BME280;56980;51.826;4.424;2022-08-23T02:26:40;101499.25;;;22.42;55.42
69713;BME280;56980;51.826;4.424;2022-08-23T02:29:07;101502.03;;;22.42;55.40
69713;BME280;56980;51.826;4.424;2022-08-23T02:31:33;101502.25;;;22.44;55.46
69713;BME280;56980;51.826;4.424;2022-08-23T02:33:59;101497.75;;;22.41;55.59
69713;BME280;56980;51.826;4.424;2022-08-23T02:36:25;101497.75;;;22.41;55.15
69713;BME280;56980;51.826;4.424;2022-08-23T02:38:53;101497.97;;;22.37;55.74
69713;BME280;56980;51.826;4.424;2022-08-23T02:41:18;101500.50;;;22.41;55.81
69713;BME280;56980;51.826;4.424;2022-08-23T02:43:44;101492.72;;;22.34;55.51
69713;BME280;56980;51.826;4.424;2022-08-23T02:46:09;101506.03;;;22.41;55.44
69713;BME280;56980;51.826;4.424;2022-08-23T02:48:35;101503.03;;;22.33;55.71
69713;BME280;56980;51.826;4.424;2022-08-23T02:51:04;101504.53;;;22.34;56.04
69713;BME280;56980;51.826;4.424;2022-08-23T02:53:30;101503.03;;;22.33;55.59
69713;BME280;56980;51.826;4.424;2022-08-23T02:55:55;101517.56;;;22.39;55.53
69713;BME280;56980;51.826;4.424;2022-08-23T02:58:21;101511.28;;;22.39;55.62
69713;BME280;56980;51.826;4.424;2022-08-23T03:00:48;101519.56;;;22.39;55.61
69713;BME280;56980;51.826;4.424;2022-08-23T03:03:14;101516.06;;;22.33;55.81
69713;BME280;56980;51.826;4.424;2022-08-23T03:05:40;101509.28;;;22.34;55.73
69713;BME280;56980;51.826;4.424;2022-08-23T03:08:06;101489.19;;;22.17;55.78
69713;BME280;56980;51.826;4.424;2022-08-23T03:10:32;101521.84;;;22.35;55.79
69713;BME280;56980;51.826;4.424;2022-08-23T03:12:57;101519.31;;;22.37;55.64
69713;BME280;56980;51.826;4.424;2022-08-23T03:15:23;101520.81;;;22.04;57.78
69713;BME280;56980;51.826;4.424;2022-08-23T03:17:48;101525.09;;;22.05;57.03
69713;BME280;56980;51.826;4.424;2022-08-23T03:20:14;101527.34;;;22.24;56.85
69713;BME280;56980;51.826;4.424;2022-08-23T03:22:39;101530.38;;;22.26;56.69
69713;BME280;56980;51.826;4.424;2022-08-23T03:25:06;101533.41;;;22.28;57.15
69713;BME280;56980;51.826;4.424;2022-08-23T03:27:32;101526.63;;;22.29;56.77
69713;BME280;56980;51.826;4.424;2022-08-23T03:29:57;101516.31;;;22.24;56.90
69713;BME280;56980;51.826;4.424;2022-08-23T03:32:23;101519.34;;;22.26;57.07
69713;BME280;56980;51.826;4.424;2022-08-23T03:34:48;101524.38;;;22.22;57.17
69713;BME280;56980;51.826;4.424;2022-08-23T03:37:14;101522.09;;;22.20;57.06
69713;BME280;56980;51.826;4.424;2022-08-23T03:39:39;101524.38;;;22.22;57.34
69713;BME280;56980;51.826;4.424;2022-08-23T03:42:05;101518.81;;;22.10;57.51
69713;BME280;56980;51.826;4.424;2022-08-23T03:44:31;101515.06;;;22.08;57.21
69713;BME280;56980;51.826;4.424;2022-08-23T03:46:57;101523.09;;;22.17;57.22
69713;BME280;56980;51.826;4.424;2022-08-23T03:49:22;101527.09;;;22.16;57.38
69713;BME280;56980;51.826;4.424;2022-08-23T03:51:48;101532.88;;;22.12;57.28
69713;BME280;56980;51.826;4.424;2022-08-23T03:54:13;101535.38;;;22.10;57.18
69713;BME280;56980;51.826;4.424;2022-08-23T03:56:55;101528.34;;;22.04;56.89
69713;BME280;56980;51.826;4.424;2022-08-23T03:59:22;101532.88;;;22.07;57.37
69713;BME280;56980;51.826;4.424;2022-08-23T04:01:48;101538.91;;;22.11;57.28
69713;BME280;56980;51.826;4.424;2022-08-23T04:04:13;101538.13;;;22.05;57.30
69713;BME280;56980;51.826;4.424;2022-08-23T04:06:38;101532.63;;;21.99;57.82
69713;BME280;56980;51.826;4.424;2022-08-23T04:09:04;101536.38;;;21.96;57.34
69713;BME280;56980;51.826;4.424;2022-08-23T04:11:30;101546.66;;;21.96;57.41
69713;BME280;56980;51.826;4.424;2022-08-23T04:13:56;101536.81;;;21.89;57.29
69713;BME280;56980;51.826;4.424;2022-08-23T04:16:21;101545.88;;;21.95;57.61
69713;BME280;56980;51.826;4.424;2022-08-23T04:18:47;101553.91;;;21.93;57.35
69713;BME280;56980;51.826;4.424;2022-08-23T04:21:16;101548.88;;;21.86;57.77
69713;BME280;56980;51.826;4.424;2022-08-23T04:23:43;101564.41;;;21.89;57.93
69713;BME280;56980;51.826;4.424;2022-08-23T04:26:09;101556.13;;;21.78;57.96
69713;BME280;56980;51.826;4.424;2022-08-23T04:28:35;101563.91;;;21.85;58.11
69713;BME280;56980;51.826;4.424;2022-08-23T04:31:01;101549.59;;;21.75;58.82
69713;BME280;56980;51.826;4.424;2022-08-23T04:33:28;101555.63;;;21.80;58.64
69713;BME280;56980;51.826;4.424;2022-08-23T04:36:00;101553.09;;;21.76;59.21
69713;BME280;56980;51.826;4.424;2022-08-23T04:38:26;101553.09;;;21.76;59.45
69713;BME280;56980;51.826;4.424;2022-08-23T04:40:53;101545.84;;;21.73;59.34
69713;BME280;56980;51.826;4.424;2022-08-23T04:43:37;101557.09;;;21.69;59.57
69713;BME280;56980;51.826;4.424;2022-08-23T04:46:03;101561.34;;;21.65;59.79
69713;BME280;56980;51.826;4.424;2022-08-23T04:48:29;101556.81;;;21.62;59.71
69713;BME280;56980;51.826;4.424;2022-08-23T04:50:55;101550.78;;;21.58;59.75
69713;BME280;56980;51.826;4.424;2022-08-23T04:53:20;101558.84;;;21.61;59.66
69713;BME280;56980;51.826;4.424;2022-08-23T04:55:46;101560.84;;;21.61;59.59
69713;BME280;56980;51.826;4.424;2022-08-23T04:58:11;101559.81;;;21.58;59.68
69713;BME280;56980;51.826;4.424;2022-08-23T05:00:37;101569.06;;;21.55;59.83
69713;BME280;56980;51.826;4.424;2022-08-23T05:03:03;101575.13;;;21.59;60.07
69713;BME280;56980;51.826;4.424;2022-08-23T05:05:28;101575.88;;;21.60;59.88
69713;BME280;56980;51.826;4.424;2022-08-23T05:07:54;101571.84;;;21.55;60.21
69713;BME280;56980;51.826;4.424;2022-08-23T05:10:19;101571.59;;;21.53;60.53
69713;BME280;56980;51.826;4.424;2022-08-23T05:12:45;101574.84;;;21.52;60.23
69713;BME280;56980;51.826;4.424;2022-08-23T05:15:11;101576.09;;;21.51;60.51
69713;BME280;56980;51.826;4.424;2022-08-23T05:17:38;101578.84;;;21.51;60.49
69713;BME280;56980;51.826;4.424;2022-08-23T05:20:05;101584.38;;;21.51;60.28
69713;BME280;56980;51.826;4.424;2022-08-23T05:22:33;101584.09;;;21.49;60.51
69713;BME280;56980;51.826;4.424;2022-08-23T05:24:58;101588.63;;;21.52;60.11
69713;BME280;56980;51.826;4.424;2022-08-23T05:27:24;101580.81;;;21.45;60.40
69713;BME280;56980;51.826;4.424;2022-08-23T05:29:50;101590.63;;;21.51;60.28
69713;BME280;56980;51.826;4.424;2022-08-23T05:32:21;101595.41;;;21.51;60.54
69713;BME280;56980;51.826;4.424;2022-08-23T05:34:47;101597.16;;;21.48;60.54
69713;BME280;56980;51.826;4.424;2022-08-23T05:37:13;101599.09;;;21.42;60.64
69713;BME280;56980;51.826;4.424;2022-08-23T05:39:39;101601.38;;;21.44;60.80
69713;BME280;56980;51.826;4.424;2022-08-23T05:42:10;101602.88;;;21.45;61.04
69713;BME280;56980;51.826;4.424;2022-08-23T05:44:36;101600.59;;;21.38;61.00
69713;BME280;56980;51.826;4.424;2022-08-23T05:47:05;101607.66;;;21.44;60.67
69713;BME280;56980;51.826;4.424;2022-08-23T05:49:31;101605.38;;;21.43;60.49
69713;BME280;56980;51.826;4.424;2022-08-23T05:51:57;101600.63;;;21.43;61.20
69713;BME280;56980;51.826;4.424;2022-08-23T05:54:22;101609.91;;;21.46;61.23
69713;BME280;56980;51.826;4.424;2022-08-23T05:56:48;101609.16;;;21.45;60.47
69713;BME280;56980;51.826;4.424;2022-08-23T05:59:14;101613.16;;;21.44;60.82
69713;BME280;56980;51.826;4.424;2022-08-23T06:01:42;101614.19;;;21.47;61.24
69713;BME280;56980;51.826;4.424;2022-08-23T06:04:09;101612.09;;;21.30;63.44
69713;BME280;56980;51.826;4.424;2022-08-23T06:06:37;101608.03;;;21.20;65.45
69713;BME280;56980;51.826;4.424;2022-08-23T06:09:04;101602.53;;;21.26;65.56
69713;BME280;56980;51.826;4.424;2022-08-23T06:11:30;101604.81;;;21.27;67.11
69713;BME280;56980;51.826;4.424;2022-08-23T06:13:58;101603.75;;;21.19;67.93
69713;BME280;56980;51.826;4.424;2022-08-23T06:16:30;101603.03;;;21.24;68.04
69713;BME280;56980;51.826;4.424;2022-08-23T06:18:56;101604.06;;;21.27;68.99
69713;BME280;56980;51.826;4.424;2022-08-23T06:21:23;101613.91;;;21.39;68.50
69713;BME280;56980;51.826;4.424;2022-08-23T06:23:49;101600.28;;;21.24;71.08
69713;BME280;56980;51.826;4.424;2022-08-23T06:26:21;101606.59;;;21.36;71.45
69713;BME280;56980;51.826;4.424;2022-08-23T06:28:49;101603.81;;;21.30;72.62
69713;BME280;56980;51.826;4.424;2022-08-23T06:31:15;101617.72;;;21.47;71.94
69713;BME280;56980;51.826;4.424;2022-08-23T06:34:01;101608.50;;;21.67;71.53
69713;BME280;56980;51.826;4.424;2022-08-23T06:36:26;101607.28;;;21.73;70.72
69713;BME280;56980;51.826;4.424;2022-08-23T06:38:53;101610.81;;;21.85;70.38
69713;BME280;56980;51.826;4.424;2022-08-23T06:41:18;101615.91;;;21.98;69.36
69713;BME280;56980;51.826;4.424;2022-08-23T06:43:44;101606.41;;;22.10;67.50
69713;BME280;56980;51.826;4.424;2022-08-23T06:46:20;101606.44;;;22.16;67.13
69713;BME280;56980;51.826;4.424;2022-08-23T06:48:46;101602.91;;;22.21;67.03
69713;BME280;56980;51.826;4.424;2022-08-23T06:51:28;101614.19;;;22.23;66.63
69713;BME280;56980;51.826;4.424;2022-08-23T06:53:55;101606.69;;;22.40;65.94
69713;BME280;56980;51.826;4.424;2022-08-23T06:56:22;101606.47;;;22.49;65.74
69713;BME280;56980;51.826;4.424;2022-08-23T06:58:49;101617.50;;;22.71;64.81
69713;BME280;56980;51.826;4.424;2022-08-23T07:01:21;101615.00;;;22.90;65.17
69713;BME280;56980;51.826;4.424;2022-08-23T07:03:53;101611.47;;;23.01;65.18
69713;BME280;56980;51.826;4.424;2022-08-23T07:06:21;101615.25;;;22.98;65.04
69713;BME280;56980;51.826;4.424;2022-08-23T07:08:47;101622.56;;;22.89;65.50
69713;BME280;56980;51.826;4.424;2022-08-23T07:11:12;101616.25;;;23.06;63.82
69713;BME280;56980;51.826;4.424;2022-08-23T07:13:38;101620.53;;;23.01;61.55
69713;BME280;56980;51.826;4.424;2022-08-23T07:16:04;101614.72;;;23.05;60.95
69713;BME280;56980;51.826;4.424;2022-08-23T07:18:29;101606.19;;;23.08;60.46
69713;BME280;56980;51.826;4.424;2022-08-23T07:20:59;101621.25;;;23.13;59.48
69713;BME280;56980;51.826;4.424;2022-08-23T07:23:25;101623.22;;;23.40;58.85
69713;BME280;56980;51.826;4.424;2022-08-23T07:25:51;101623.78;;;23.11;59.26
69713;BME280;56980;51.826;4.424;2022-08-23T07:28:17;101627.97;;;23.45;59.10
69713;BME280;56980;51.826;4.424;2022-08-23T07:30:43;101630.97;;;23.58;59.38
69713;BME280;56980;51.826;4.424;2022-08-23T07:33:08;101620.66;;;23.53;59.21
69713;BME280;56980;51.826;4.424;2022-08-23T07:35:34;101628.75;;;23.40;58.87
69713;BME280;56980;51.826;4.424;2022-08-23T07:37:59;101628.16;;;23.69;57.60
69713;BME280;56980;51.826;4.424;2022-08-23T07:40:24;101631.38;;;23.79;57.23
69713;BME280;56980;51.826;4.424;2022-08-23T07:42:50;101635.47;;;23.67;58.04
69713;BME280;56980;51.826;4.424;2022-08-23T07:45:15;101637.13;;;23.87;57.00
69713;BME280;56980;51.826;4.424;2022-08-23T07:47:41;101639.41;;;23.88;57.78
69713;BME280;56980;51.826;4.424;2022-08-23T07:50:07;101642.22;;;23.72;58.60
69713;BME280;56980;51.826;4.424;2022-08-23T07:52:33;101637.38;;;23.89;58.51
69713;BME280;56980;51.826;4.424;2022-08-23T07:54:59;101634.84;;;23.96;57.94
69713;BME280;56980;51.826;4.424;2022-08-23T07:57:26;101642.06;;;24.05;57.73
69713;BME280;56980;51.826;4.424;2022-08-23T07:59:51;101642.59;;;23.98;59.13
69713;BME280;56980;51.826;4.424;2022-08-23T08:02:17;101650.53;;;24.18;58.79
69713;BME280;56980;51.826;4.424;2022-08-23T08:04:42;101647.47;;;24.33;58.18
69713;BME280;56980;51.826;4.424;2022-08-23T08:07:08;101654.81;;;24.30;58.82
69713;BME280;56980;51.826;4.424;2022-08-23T08:09:33;101660.44;;;24.55;58.49
69713;BME280;56980;51.826;4.424;2022-08-23T08:11:58;101660.44;;;24.55;57.57
69713;BME280;56980;51.826;4.424;2022-08-23T08:14:24;101670.66;;;24.65;57.50
69713;BME280;56980;51.826;4.424;2022-08-23T08:16:50;101665.63;;;24.99;57.10
69713;BME280;56980;51.826;4.424;2022-08-23T08:19:16;101662.38;;;24.95;56.05
69713;BME280;56980;51.826;4.424;2022-08-23T08:21:43;101666.91;;;25.22;56.58
69713;BME280;56980;51.826;4.424;2022-08-23T08:24:11;101676.38;;;25.33;56.28
69713;BME280;56980;51.826;4.424;2022-08-23T08:26:38;101679.88;;;25.39;56.72
69713;BME280;56980;51.826;4.424;2022-08-23T08:29:04;101681.03;;;25.24;55.84
69713;BME280;56980;51.826;4.424;2022-08-23T08:31:30;101675.94;;;25.29;56.12
69713;BME280;56980;51.826;4.424;2022-08-23T08:33:55;101672.41;;;25.52;55.03
69713;BME280;56980;51.826;4.424;2022-08-23T08:39:05;101685.06;;;25.48;55.48
69713;BME280;56980;51.826;4.424;2022-08-23T08:44:24;101690.53;;;25.59;55.06
69713;BME280;56980;51.826;4.424;2022-08-23T08:47:09;101689.13;;;25.71;54.94
69713;BME280;56980;51.826;4.424;2022-08-23T08:49:56;101687.03;;;25.77;54.56
69713;BME280;56980;51.826;4.424;2022-08-23T08:52:28;101681.94;;;25.81;54.53
69713;BME280;56980;51.826;4.424;2022-08-23T08:55:00;101683.34;;;25.88;54.32
69713;BME280;56980;51.826;4.424;2022-08-23T08:57:31;101682.84;;;25.89;55.16
69713;BME280;56980;51.826;4.424;2022-08-23T09:00:05;101684.63;;;25.87;53.65
69713;BME280;56980;51.826;4.424;2022-08-23T09:02:33;101688.84;;;25.50;56.01
69713;BME280;56980;51.826;4.424;2022-08-23T09:05:01;101695.44;;;25.72;55.13
69713;BME280;56980;51.826;4.424;2022-08-23T09:07:53;101706.72;;;25.79;54.66
69713;BME280;56980;51.826;4.424;2022-08-23T09:10:49;101700.53;;;25.86;54.93
69713;BME280;56980;51.826;4.424;2022-08-23T09:13:55;101703.28;;;25.92;54.39
69713;BME280;56980;51.826;4.424;2022-08-23T09:16:52;101689.34;;;25.73;54.74
69713;BME280;56980;51.826;4.424;2022-08-23T09:19:19;101701.69;;;25.96;54.69
69713;BME280;56980;51.826;4.424;2022-08-23T09:24:13;101700.88;;;26.01;54.12
69713;BME280;56980;51.826;4.424;2022-08-23T09:26:39;101693.66;;;26.12;53.37
69713;BME280;56980;51.826;4.424;2022-08-23T09:29:31;101695.97;;;26.08;53.21
69713;BME280;56980;51.826;4.424;2022-08-23T09:31:59;101693.97;;;26.27;54.07
69713;BME280;56980;51.826;4.424;2022-08-23T09:37:05;101702.66;;;26.55;51.43
69713;BME280;56980;51.826;4.424;2022-08-23T09:39:33;101688.56;;;26.53;52.24
69713;BME280;56980;51.826;4.424;2022-08-23T09:42:00;101704.25;;;26.82;51.16
69713;BME280;56980;51.826;4.424;2022-08-23T09:44:36;101707.69;;;26.89;51.47
69713;BME280;56980;51.826;4.424;2022-08-23T09:47:10;101703.94;;;27.05;51.93
69713;BME280;56980;51.826;4.424;2022-08-23T09:49:39;101705.22;;;27.17;50.14
69713;BME280;56980;51.826;4.424;2022-08-23T09:52:31;101698.81;;;27.35;50.46
69713;BME280;56980;51.826;4.424;2022-08-23T09:55:08;101691.78;;;27.47;48.01
69713;BME280;56980;51.826;4.424;2022-08-23T09:57:35;101699.25;;;27.39;48.98
69713;BME280;56980;51.826;4.424;2022-08-23T10:00:26;101699.69;;;27.70;48.69
69713;BME280;56980;51.826;4.424;2022-08-23T10:02:52;101696.25;;;27.37;48.37
69713;BME280;56980;51.826;4.424;2022-08-23T10:05:35;101695.41;;;27.42;49.47
69713;BME280;56980;51.826;4.424;2022-08-23T10:08:01;101691.16;;;27.68;48.30
69713;BME280;56980;51.826;4.424;2022-08-23T10:12:58;101693.44;;;28.03;46.46
69713;BME280;56980;51.826;4.424;2022-08-23T10:18:17;101679.06;;;28.12;46.70
69713;BME280;56980;51.826;4.424;2022-08-23T10:21:04;101677.28;;;28.35;46.81
69713;BME280;56980;51.826;4.424;2022-08-23T10:26:22;101683.91;;;28.46;46.13
69713;BME280;56980;51.826;4.424;2022-08-23T10:28:57;101673.28;;;28.65;44.42
69713;BME280;56980;51.826;4.424;2022-08-23T10:31:55;101679.69;;;28.73;45.06
69713;BME280;56980;51.826;4.424;2022-08-23T10:37:05;101672.22;;;28.68;46.41
69713;BME280;56980;51.826;4.424;2022-08-23T10:42:41;101683.75;;;28.72;45.49
69713;BME280;56980;51.826;4.424;2022-08-23T10:48:04;101679.16;;;28.95;43.94
69713;BME280;56980;51.826;4.424;2022-08-23T10:50:48;101673.28;;;29.06;44.31
69713;BME280;56980;51.826;4.424;2022-08-23T10:53:17;101678.78;;;29.48;43.53
69713;BME280;56980;51.826;4.424;2022-08-23T10:55:47;101671.69;;;29.47;41.74
69713;BME280;56980;51.826;4.424;2022-08-23T11:01:06;101672.63;;;28.93;44.43
69713;BME280;56980;51.826;4.424;2022-08-23T11:03:55;101677.78;;;28.68;45.93
69713;BME280;56980;51.826;4.424;2022-08-23T11:11:48;101678.81;;;28.23;45.33
69713;BME280;56980;51.826;4.424;2022-08-23T11:14:36;101677.97;;;28.70;44.44
69713;BME280;56980;51.826;4.424;2022-08-23T11:17:05;101671.75;;;28.77;45.48
69713;BME280;56980;51.826;4.424;2022-08-23T11:22:18;101679.16;;;29.24;43.09
69713;BME280;56980;51.826;4.424;2022-08-23T11:24:50;101670.50;;;29.06;43.27
69713;BME280;56980;51.826;4.424;2022-08-23T11:29:51;101681.59;;;28.57;43.98
69713;BME280;56980;51.826;4.424;2022-08-23T11:35:11;101688.69;;;28.79;44.17
69713;BME280;56980;51.826;4.424;2022-08-23T11:37:50;101686.78;;;28.74;44.33
69713;BME280;56980;51.826;4.424;2022-08-23T11:40:36;101693.19;;;28.82;43.93
69713;BME280;56980;51.826;4.424;2022-08-23T11:43:09;101687.91;;;28.58;44.21
69713;BME280;56980;51.826;4.424;2022-08-23T11:51:05;101689.66;;;29.10;43.87
69713;BME280;56980;51.826;4.424;2022-08-23T12:01:37;101685.53;;;28.62;44.98
69713;BME280;56980;51.826;4.424;2022-08-23T12:04:31;101688.06;;;28.94;44.43
69713;BME280;56980;51.826;4.424;2022-08-23T12:06:58;101685.66;;;29.19;44.45
69713;BME280;56980;51.826;4.424;2022-08-23T12:14:35;101689.41;;;29.21;44.72
69713;BME280;56980;51.826;4.424;2022-08-23T12:17:03;101686.97;;;29.46;44.01
69713;BME280;56980;51.826;4.424;2022-08-23T12:19:37;101695.16;;;28.95;45.10
69713;BME280;56980;51.826;4.424;2022-08-23T12:22:27;101687.28;;;29.35;44.78
69713;BME280;56980;51.826;4.424;2022-08-23T12:24:59;101697.50;;;29.11;44.09
69713;BME280;56980;51.826;4.424;2022-08-23T12:27:47;101697.06;;;29.00;44.67
69713;BME280;56980;51.826;4.424;2022-08-23T12:30:21;101694.91;;;29.13;44.74
69713;BME280;56980;51.826;4.424;2022-08-23T12:38:13;101697.34;;;29.38;44.12
69713;BME280;56980;51.826;4.424;2022-08-23T12:40:49;101705.06;;;29.52;43.01
69713;BME280;56980;51.826;4.424;2022-08-23T12:43:19;101695.13;;;29.44;43.80
69713;BME280;56980;51.826;4.424;2022-08-23T12:45:55;101701.28;;;28.93;45.78
69713;BME280;56980;51.826;4.424;2022-08-23T12:48:25;101710.03;;;28.97;46.84
69713;BME280;56980;51.826;4.424;2022-08-23T12:50:59;101697.78;;;27.65;50.44
69713;BME280;56980;51.826;4.424;2022-08-23T12:53:32;101693.66;;;28.18;50.58
69713;BME280;56980;51.826;4.424;2022-08-23T12:56:07;101691.22;;;28.35;49.85
69713;BME280;56980;51.826;4.424;2022-08-23T12:58:36;101688.19;;;28.47;49.89
69713;BME280;56980;51.826;4.424;2022-08-23T13:01:05;101688.13;;;29.01;47.31
69713;BME280;56980;51.826;4.424;2022-08-23T13:03:35;101685.50;;;28.96;46.48
69713;BME280;56980;51.826;4.424;2022-08-23T13:06:06;101691.09;;;29.03;46.13
69713;BME280;56980;51.826;4.424;2022-08-23T13:08:57;101690.25;;;29.08;45.51
69713;BME280;56980;51.826;4.424;2022-08-23T13:11:26;101694.53;;;29.09;45.62
69713;BME280;56980;51.826;4.424;2022-08-23T13:13:53;101688.03;;;29.35;45.96
69713;BME280;56980;51.826;4.424;2022-08-23T13:19:24;101682.97;;;29.62;46.01
69713;BME280;56980;51.826;4.424;2022-08-23T13:24:38;101682.56;;;29.01;46.70
69713;BME280;56980;51.826;4.424;2022-08-23T13:37:46;101666.25;;;29.70;43.93
69713;BME280;56980;51.826;4.424;2022-08-23T13:40:24;101678.53;;;29.74;44.62
69713;BME280;56980;51.826;4.424;2022-08-23T13:43:14;101669.00;;;30.13;42.33
69713;BME280;56980;51.826;4.424;2022-08-23T13:45:46;101674.09;;;30.30;42.61
69713;BME280;56980;51.826;4.424;2022-08-23T13:48:15;101673.94;;;30.43;41.95
69713;BME280;56980;51.826;4.424;2022-08-23T13:50:43;101672.47;;;30.73;41.49
69713;BME280;56980;51.826;4.424;2022-08-23T13:53:09;101670.25;;;30.71;41.89
69713;BME280;56980;51.826;4.424;2022-08-23T13:55:42;101666.50;;;30.76;40.99
69713;BME280;56980;51.826;4.424;2022-08-23T13:58:24;101672.03;;;30.30;43.78
69713;BME280;56980;51.826;4.424;2022-08-23T14:00:50;101684.53;;;30.45;43.28
69713;BME280;56980;51.826;4.424;2022-08-23T14:03:16;101675.66;;;30.69;42.09
69713;BME280;56980;51.826;4.424;2022-08-23T14:05:41;101683.06;;;30.36;43.84
69713;BME280;56980;51.826;4.424;2022-08-23T14:08:06;101674.47;;;30.42;44.20
69713;BME280;56980;51.826;4.424;2022-08-23T14:10:33;101676.72;;;30.43;43.32
69713;BME280;56980;51.826;4.424;2022-08-23T14:12:59;101683.59;;;30.27;41.67
69713;BME280;56980;51.826;4.424;2022-08-23T14:15:26;101686.41;;;29.83;44.15
69713;BME280;56980;51.826;4.424;2022-08-23T14:17:52;101695.84;;;30.09;44.66
69713;BME280;56980;51.826;4.424;2022-08-23T14:20:20;101688.81;;;30.23;43.42
69713;BME280;56980;51.826;4.424;2022-08-23T14:22:45;101684.72;;;30.24;44.05
69713;BME280;56980;51.826;4.424;2022-08-23T14:25:12;101685.44;;;30.32;43.70
69713;BME280;56980;51.826;4.424;2022-08-23T14:27:40;101685.75;;;30.06;45.06
69713;BME280;56980;51.826;4.424;2022-08-23T14:30:08;101685.13;;;30.43;43.57
69713;BME280;56980;51.826;4.424;2022-08-23T14:32:36;101691.88;;;30.55;43.19